createdAt,value
2018-12-31T00:02:10.603Z,29.07
2018-12-31T00:07:03.407Z,27.03
2018-12-31T00:11:55.490Z,22.57
2018-12-31T00:16:47.876Z,16.90
2018-12-31T00:21:40.398Z,20.37
2018-12-31T00:26:32.344Z,25.30
2018-12-31T00:31:24.984Z,29.47
2018-12-31T00:36:18.323Z,18.60
2018-12-31T00:41:10.921Z,17.67
2018-12-31T00:46:03.103Z,14.83
2018-12-31T00:50:55.293Z,21.73
2018-12-31T00:55:47.750Z,20.43
2018-12-31T01:00:40.205Z,25.27
2018-12-31T01:05:32.418Z,23.43
2018-12-31T01:10:24.878Z,19.77
2018-12-31T01:15:17.323Z,17.30
2018-12-31T01:20:09.553Z,17.57
2018-12-31T01:25:02.043Z,20.33
2018-12-31T01:29:54.293Z,22.13
2018-12-31T01:34:46.641Z,24.53
2018-12-31T01:39:38.890Z,30.37
2018-12-31T01:44:31.049Z,26.90
2018-12-31T01:49:23.457Z,25.53
2018-12-31T01:54:15.859Z,27.13
2018-12-31T01:59:08.055Z,30.37
2018-12-31T02:04:00.066Z,29.77
2018-12-31T02:08:52.510Z,29.00
2018-12-31T02:13:44.903Z,24.07
2018-12-31T02:18:37.061Z,27.13
2018-12-31T02:23:29.564Z,24.67
2018-12-31T02:28:22.067Z,23.30
2018-12-31T02:33:14.415Z,26.80
2018-12-31T02:38:06.557Z,30.97
2018-12-31T02:42:58.845Z,28.70
2018-12-31T02:47:51.154Z,23.37
2018-12-31T02:52:43.506Z,22.73
2018-12-31T02:57:36.022Z,19.70
2018-12-31T03:02:28.181Z,18.63
2018-12-31T03:07:20.461Z,17.83
2018-12-31T03:12:12.754Z,17.33
2018-12-31T03:17:05.080Z,19.37
2018-12-31T03:21:57.084Z,17.60
2018-12-31T03:26:49.298Z,19.07
2018-12-31T03:31:41.678Z,17.17
2018-12-31T03:36:33.861Z,22.90
2018-12-31T03:41:26.254Z,31.27
2018-12-31T03:46:18.735Z,24.20
2018-12-31T03:51:10.903Z,22.73
2018-12-31T03:56:03.370Z,18.17
2018-12-31T04:00:55.839Z,18.67
2018-12-31T04:05:47.983Z,32.90
2018-12-31T04:10:40.458Z,30.90
2018-12-31T04:15:32.645Z,27.93
2018-12-31T04:20:24.749Z,67.47
2018-12-31T04:25:16.872Z,65.40
2018-12-31T04:30:09.365Z,92.33
2018-12-31T04:35:01.661Z,48.33
2018-12-31T04:39:54.079Z,51.23
2018-12-31T04:44:46.537Z,30.10
2018-12-31T04:49:38.680Z,24.20
2018-12-31T04:54:31.221Z,19.43
2018-12-31T04:59:23.719Z,21.00
2018-12-31T05:04:15.834Z,16.73
2018-12-31T05:09:08.253Z,17.20
2018-12-31T05:14:00.612Z,17.27
2018-12-31T05:18:52.716Z,16.03
2018-12-31T05:23:45.203Z,14.27
2018-12-31T05:28:37.654Z,13.80
2018-12-31T05:33:30.654Z,12.37
2018-12-31T05:38:23.160Z,14.33
2018-12-31T05:43:15.673Z,13.43
2018-12-31T05:48:07.822Z,13.10
2018-12-31T05:52:59.863Z,17.40
2018-12-31T05:57:52.136Z,16.40
2018-12-31T06:02:44.917Z,18.13
2018-12-31T06:07:37.420Z,37.47
2018-12-31T06:12:29.593Z,12.77
2018-12-31T06:17:22.054Z,15.70
2018-12-31T06:22:14.413Z,15.40
2018-12-31T06:27:06.420Z,15.30
2018-12-31T06:31:58.550Z,11.48
2018-12-31T06:36:50.903Z,10.67
2018-12-31T06:41:42.880Z,8.97
2018-12-31T06:46:35.236Z,11.20
2018-12-31T06:51:27.491Z,13.40
2018-12-31T06:56:19.711Z,15.50
2018-12-31T07:01:12.166Z,12.37
2018-12-31T07:06:04.729Z,12.97
2018-12-31T07:10:56.959Z,11.50
2018-12-31T07:15:49.274Z,15.07
2018-12-31T07:20:41.887Z,17.70
2018-12-31T07:25:34.409Z,18.00
2018-12-31T07:30:26.405Z,10.33
2018-12-31T07:35:18.488Z,12.57
2018-12-31T07:40:10.705Z,12.70
2018-12-31T07:45:03.082Z,14.73
2018-12-31T07:49:55.501Z,14.40
2018-12-31T07:54:47.683Z,11.37
2018-12-31T07:59:40.046Z,17.00
2018-12-31T08:04:32.209Z,27.57
2018-12-31T08:09:24.538Z,43.53
2018-12-31T08:14:16.567Z,26.97
2018-12-31T08:19:08.641Z,21.50
2018-12-31T08:24:01.014Z,27.83
2018-12-31T08:28:53.389Z,17.33
2018-12-31T08:33:45.708Z,18.13
2018-12-31T08:38:38.239Z,16.67
2018-12-31T08:43:30.781Z,17.33
2018-12-31T08:48:23.237Z,18.97
2018-12-31T08:53:15.561Z,17.67
2018-12-31T08:58:07.660Z,21.20
2018-12-31T09:03:00.009Z,19.53
2018-12-31T09:07:52.125Z,25.77
2018-12-31T09:12:44.678Z,13.15
2018-12-31T09:17:37.033Z,15.33
2018-12-31T09:22:29.289Z,14.68
2018-12-31T09:27:21.445Z,13.30
2018-12-31T09:32:13.876Z,12.47
2018-12-31T09:37:06.522Z,14.60
2018-12-31T09:41:58.321Z,17.77
2018-12-31T09:46:51.658Z,18.12
2018-12-31T09:51:44.101Z,22.73
2018-12-31T09:56:36.568Z,128.25
2018-12-31T10:01:28.685Z,10.85
2018-12-31T10:06:20.961Z,10.55
2018-12-31T10:11:12.898Z,12.00
2018-12-31T10:16:05.097Z,17.65
2018-12-31T10:20:57.393Z,13.90
2018-12-31T10:25:49.489Z,11.88
2018-12-31T10:30:41.681Z,13.30
2018-12-31T10:35:33.766Z,11.63
2018-12-31T10:40:25.854Z,12.07
2018-12-31T10:45:18.170Z,12.03
2018-12-31T10:50:10.405Z,15.50
2018-12-31T10:55:02.449Z,14.87
2018-12-31T10:59:55.853Z,16.05
2018-12-31T11:04:48.693Z,26.37
2018-12-31T11:09:40.797Z,24.67
2018-12-31T11:14:33.128Z,20.30
2018-12-31T11:19:25.441Z,22.32
2018-12-31T11:24:17.665Z,23.38
2018-12-31T11:29:09.733Z,23.50
2018-12-31T11:34:02.034Z,19.30
2018-12-31T11:38:54.198Z,18.85
2018-12-31T11:43:46.234Z,17.23
2018-12-31T11:48:38.370Z,20.80
2018-12-31T11:53:30.826Z,19.45
2018-12-31T11:58:23.379Z,17.52
2018-12-31T12:03:15.484Z,17.30
2018-12-31T12:08:07.840Z,15.43
2018-12-31T12:12:59.931Z,19.23
2018-12-31T12:17:52.212Z,20.45
2018-12-31T12:22:44.393Z,26.17
2018-12-31T12:27:36.818Z,32.55
2018-12-31T12:32:28.964Z,18.55
2018-12-31T12:37:21.450Z,21.42
2018-12-31T12:42:13.944Z,17.90
2018-12-31T12:47:08.267Z,16.40
2018-12-31T12:52:00.153Z,17.25
2018-12-31T12:56:52.339Z,15.30
2018-12-31T13:01:44.738Z,14.30
2018-12-31T13:06:37.018Z,16.02
2018-12-31T13:11:29.253Z,11.03
2018-12-31T13:16:21.653Z,11.25
2018-12-31T13:21:13.732Z,13.45
2018-12-31T13:26:05.932Z,12.70
2018-12-31T13:30:59.145Z,11.75
2018-12-31T13:35:51.823Z,9.58
2018-12-31T13:40:43.943Z,8.90
2018-12-31T13:45:36.063Z,9.20
2018-12-31T13:50:28.641Z,11.50
2018-12-31T13:55:20.673Z,12.33
2018-12-31T14:00:12.758Z,12.35
2018-12-31T14:05:05.340Z,14.68
2018-12-31T14:09:57.494Z,13.85
2018-12-31T14:14:49.635Z,10.90
2018-12-31T14:19:42.086Z,12.40
2018-12-31T14:24:34.285Z,13.20
2018-12-31T14:29:26.732Z,12.13
2018-12-31T14:34:18.811Z,11.80
2018-12-31T14:39:11.093Z,12.98
2018-12-31T14:44:03.582Z,16.77
2018-12-31T14:48:55.827Z,16.35
2018-12-31T14:53:48.651Z,16.32
2018-12-31T14:58:41.198Z,18.32
2018-12-31T15:03:33.374Z,18.73
2018-12-31T15:08:25.686Z,21.25
2018-12-31T15:13:17.897Z,22.67
2018-12-31T15:18:10.243Z,43.73
2018-12-31T15:23:02.660Z,27.00
2018-12-31T15:27:55.017Z,27.17
2018-12-31T15:32:47.359Z,23.40
2018-12-31T15:37:39.766Z,25.48
2018-12-31T15:42:32.087Z,24.02
2018-12-31T15:47:24.727Z,19.25
2018-12-31T15:52:17.047Z,27.62
2018-12-31T15:57:09.585Z,26.73
2018-12-31T16:02:01.649Z,50.45
2018-12-31T16:06:53.905Z,37.63
2018-12-31T16:11:46.436Z,26.48
2018-12-31T16:16:38.347Z,20.20
2018-12-31T16:21:30.828Z,23.90
2018-12-31T16:26:22.978Z,24.95
2018-12-31T16:31:15.100Z,23.83
2018-12-31T16:36:07.157Z,43.35
2018-12-31T16:40:59.645Z,28.62
2018-12-31T16:45:51.700Z,27.05
2018-12-31T16:50:43.887Z,24.35
2018-12-31T16:55:36.353Z,26.12
2018-12-31T17:00:28.654Z,33.93
2018-12-31T17:05:21.146Z,31.42
2018-12-31T17:10:13.337Z,32.30
2018-12-31T17:15:06.363Z,37.23
2018-12-31T17:19:58.432Z,53.28
2018-12-31T17:24:50.869Z,43.17
2018-12-31T17:29:43.716Z,40.35
2018-12-31T17:34:35.865Z,42.53
2018-12-31T17:39:28.186Z,85.30
2018-12-31T17:44:20.405Z,95.05
2018-12-31T17:49:12.907Z,109.07
2018-12-31T17:54:05.053Z,79.90
2018-12-31T17:58:57.378Z,135.73
2018-12-31T18:03:49.966Z,77.07
2018-12-31T18:08:44.871Z,90.72
2018-12-31T18:13:37.324Z,103.63
2018-12-31T18:18:29.621Z,70.90
2018-12-31T18:23:22.294Z,65.73
2018-12-31T18:28:14.318Z,134.07
2018-12-31T18:33:06.737Z,95.20
2018-12-31T18:37:58.951Z,80.70
2018-12-31T18:42:51.112Z,90.03
2018-12-31T18:47:43.612Z,64.83
2018-12-31T18:52:36.021Z,45.30
2018-12-31T18:57:28.509Z,47.85
2018-12-31T19:02:20.490Z,39.38
2018-12-31T19:07:12.893Z,46.47
2018-12-31T19:12:05.413Z,50.28
2018-12-31T19:16:57.772Z,53.25
2018-12-31T19:21:50.225Z,67.50
2018-12-31T19:26:42.653Z,58.78
2018-12-31T19:31:34.709Z,56.00
2018-12-31T19:36:27.588Z,64.03
2018-12-31T19:41:19.666Z,63.95
2018-12-31T19:46:11.766Z,44.65
2018-12-31T19:51:03.973Z,52.23
2018-12-31T19:55:56.401Z,45.28
2018-12-31T20:00:48.509Z,140.77
2018-12-31T20:05:41.041Z,82.83
2018-12-31T20:10:34.562Z,60.53
2018-12-31T20:15:26.699Z,102.60
2018-12-31T20:20:19.262Z,86.93
2018-12-31T20:25:11.517Z,84.37
2018-12-31T20:30:04.477Z,103.22
2018-12-31T20:34:56.625Z,110.30
2018-12-31T20:39:49.189Z,77.07
2018-12-31T20:44:41.630Z,118.72
2018-12-31T20:49:33.969Z,64.70
2018-12-31T20:54:26.438Z,47.62
2018-12-31T20:59:19.049Z,74.55
2018-12-31T21:04:11.497Z,47.40
2018-12-31T21:09:04.589Z,57.95
2018-12-31T21:13:57.153Z,33.70
2018-12-31T21:18:49.169Z,45.08
2018-12-31T21:23:41.642Z,42.97
2018-12-31T21:28:33.889Z,121.97
2018-12-31T21:33:26.118Z,55.33
2018-12-31T21:38:18.491Z,44.87
2018-12-31T21:43:10.725Z,39.50
2018-12-31T21:48:02.916Z,67.97
2018-12-31T21:52:55.356Z,42.77
2018-12-31T21:57:47.817Z,33.77
2018-12-31T22:02:40.245Z,46.57
2018-12-31T22:07:32.805Z,46.33
2018-12-31T22:12:25.081Z,48.00
2018-12-31T22:17:17.328Z,28.17
2018-12-31T22:22:09.793Z,44.87
2018-12-31T22:27:01.923Z,35.17
2018-12-31T22:31:54.303Z,58.95
2018-12-31T22:36:47.214Z,52.70
2018-12-31T22:41:39.462Z,49.97
2018-12-31T22:46:31.740Z,53.87
2018-12-31T22:51:23.914Z,44.13
2018-12-31T22:56:16.140Z,105.40
2018-12-31T23:01:08.709Z,155.52
2018-12-31T23:06:00.862Z,333.73
2018-12-31T23:10:53.070Z,858.47
2018-12-31T23:15:47.343Z,1135.90
2018-12-31T23:20:39.467Z,334.50
2018-12-31T23:25:31.802Z,465.95
2018-12-31T23:30:24.053Z,860.93
2018-12-31T23:35:16.488Z,689.47
2018-12-31T23:40:09.865Z,637.70
2018-12-31T23:45:01.957Z,565.00
2018-12-31T23:49:54.545Z,656.27
2018-12-31T23:54:47.341Z,671.03
2018-12-31T23:59:39.573Z,694.67
